CheckWX is a tool to help pilots better visualize weather data.  It is not intended as a substitute for an official pre-flight weather briefing.

02:47:32 UTC

KMGJ METAR
Orange County Airport
Montgomery, New York, USA
Current

54 mins ago

KMGJ 060154Z AUTO 00000KT 10SM CLR 23/19 A2995 RMK AO2 SLP141 T02280189
Observed
Jul-6 @ 01:54 UTC
Visibility
10 SM
Flight Rules
VFR
Cloud Levels
  • Clear skies
Temperature
23°C / 73°F
Dewpoint
19°C / 66°F
Humidity
78%
Altimeter
29.95" Hg
Pressure
1014.22 hPa
Previous

2 hours ago

KMGJ 060054Z AUTO 00000KT 10SM CLR 23/20 A2993 RMK AO2 SLP134 T02280200
Observed
Jul-6 @ 00:54 UTC
Visibility
10 SM
Flight Rules
VFR
Cloud Levels
  • Clear skies
Temperature
23°C / 73°F
Dewpoint
20°C / 68°F
Humidity
83%
Altimeter
29.93" Hg
Pressure
1013.52 hPa
Previous

3 hours ago

KMGJ 052354Z AUTO 28005KT 10SM CLR 27/18 A2992 RMK AO2 SLP129 T02720178 10322 20272 53005
Observed
Jul-5 @ 23:54 UTC
Wind
  • 280° at 5 KTS
Visibility
10 SM
Flight Rules
VFR
Cloud Levels
  • Clear skies
Temperature
27°C / 81°F
Dewpoint
18°C / 64°F
Humidity
58%
Altimeter
29.92" Hg
Pressure
1013.22 hPa